Time;durP1;ratioP1;P1;durP2;ratioP2;P2;SDS_P1;SDS_P2;PMS_P1;PMS_P2;Temp;Humidity;BMP_temperature;BMP_pressure;BME280_temperature;BME280_humidity;BME280_pressure;Samples;Min_cycle;Max_cycle;Signal;HPM_P1;HPM_P2
2021/04/22 00:00:28;;;;;;;14.20;8.80;;;8.40;99.90;;;;;;5022661;28;20260;-71
2021/04/22 00:02:54;;;;;;;9.23;8.33;;;8.40;99.90;;;;;;5020536;28;20189;-70
2021/04/22 00:05:28;;;;;;;10.50;8.40;;;8.40;99.90;;;;;;5017129;28;20271;-71
2021/04/22 00:07:55;;;;;;;13.00;8.70;;;8.30;99.90;;;;;;5020006;28;20203;-72
2021/04/22 00:10:28;;;;;;;13.20;9.03;;;8.30;99.90;;;;;;5021224;28;20427;-70
2021/04/22 00:12:53;;;;;;;11.00;9.03;;;8.30;99.90;;;;;;5018376;28;20459;-70
2021/04/22 00:15:20;;;;;;;14.03;10.57;;;8.40;99.90;;;;;;5020896;28;20479;-71
2021/04/22 00:17:47;;;;;;;24.57;11.53;;;8.60;99.90;;;;;;5024191;28;20178;-70
2021/04/22 00:20:15;;;;;;;17.00;11.67;;;8.60;99.90;;;;;;5021001;28;20443;-72
2021/04/22 00:22:41;;;;;;;14.60;12.30;;;8.80;99.90;;;;;;5023949;28;20454;-71
2021/04/22 00:25:07;;;;;;;16.20;12.40;;;8.90;99.90;;;;;;5020856;28;20470;-72
2021/04/22 00:27:33;;;;;;;13.97;11.27;;;9.10;99.90;;;;;;5022463;28;20205;-71
2021/04/22 00:29:59;;;;;;;13.40;10.53;;;9.20;99.90;;;;;;5021033;28;20431;-70
2021/04/22 00:32:25;;;;;;;15.57;12.50;;;9.40;99.90;;;;;;5023974;28;20807;-70
2021/04/22 00:34:50;;;;;;;17.90;12.17;;;9.40;99.90;;;;;;5023415;28;20181;-70
2021/04/22 00:37:15;;;;;;;19.20;13.23;;;9.50;99.90;;;;;;5020665;28;20261;-69
2021/04/22 00:39:41;;;;;;;15.77;11.57;;;9.60;99.90;;;;;;5018224;28;20203;-69
2021/04/22 00:42:07;;;;;;;16.90;13.33;;;9.70;99.90;;;;;;5022048;28;20665;-70
2021/04/22 00:44:33;;;;;;;14.97;12.57;;;9.70;99.90;;;;;;5019840;28;20189;-71
2021/04/22 00:46:59;;;;;;;23.27;13.67;;;9.80;99.90;;;;;;5023319;28;20183;-72
2021/04/22 00:49:25;;;;;;;14.10;12.13;;;9.80;99.90;;;;;;5016457;28;20451;-71
2021/04/22 00:51:53;;;;;;;19.17;13.77;;;9.90;99.90;;;;;;5024399;28;20419;-71
2021/04/22 00:54:18;;;;;;;18.60;13.57;;;10.00;99.90;;;;;;5018442;28;20947;-71
2021/04/22 00:56:44;;;;;;;20.27;15.30;;;9.90;99.90;;;;;;5023758;28;20431;-71
2021/04/22 00:59:10;;;;;;;20.70;15.10;;;9.90;99.90;;;;;;5016352;28;20199;-71
2021/04/22 01:01:36;;;;;;;18.30;15.53;;;9.90;99.90;;;;;;5021303;28;20197;-71
2021/04/22 01:04:03;;;;;;;21.77;16.43;;;9.80;99.90;;;;;;5023630;28;20515;-71
2021/04/22 01:06:29;;;;;;;24.67;17.37;;;9.70;99.90;;;;;;5021278;28;20181;-71
2021/04/22 01:08:54;;;;;;;23.57;17.43;;;9.70;99.90;;;;;;5019757;28;20462;-71
2021/04/22 01:11:20;;;;;;;30.20;17.50;;;9.70;99.90;;;;;;5019399;28;20215;-70
2021/04/22 01:13:46;;;;;;;25.63;17.33;;;9.60;99.90;;;;;;5019624;28;20201;-70
2021/04/22 01:16:11;;;;;;;30.13;17.73;;;9.60;99.90;;;;;;5019324;28;20505;-71
2021/04/22 01:18:37;;;;;;;27.70;17.47;;;9.60;99.90;;;;;;5022217;28;20214;-70
2021/04/22 01:21:03;;;;;;;23.63;17.47;;;9.60;99.90;;;;;;5018293;28;20181;-71
2021/04/22 01:23:29;;;;;;;28.57;17.80;;;9.50;99.90;;;;;;5020222;28;20680;-71
2021/04/22 01:25:55;;;;;;;26.00;18.60;;;9.50;99.90;;;;;;5019549;28;20441;-71
2021/04/22 01:28:23;;;;;;;27.33;20.20;;;9.40;99.90;;;;;;5023550;28;20209;-70
2021/04/22 01:30:54;;;;;;;27.27;20.13;;;9.40;99.90;;;;;;5015431;28;20438;-71
2021/04/22 01:33:24;;;;;;;25.80;18.77;;;9.30;99.90;;;;;;5016679;28;21038;-70
2021/04/22 01:35:52;;;;;;;28.97;20.73;;;9.20;99.90;;;;;;5015062;28;20433;-70
2021/04/22 01:38:18;;;;;;;28.87;22.10;;;9.10;99.90;;;;;;5019798;28;20439;-70
2021/04/22 01:40:45;;;;;;;31.63;22.70;;;9.10;99.90;;;;;;5021434;28;20420;-71
2021/04/22 01:43:11;;;;;;;40.73;23.10;;;9.00;99.90;;;;;;5019164;28;20441;-70
2021/04/22 01:45:37;;;;;;;34.37;23.13;;;8.90;99.90;;;;;;5020814;28;20422;-70
2021/04/22 01:48:04;;;;;;;33.00;21.50;;;8.90;99.90;;;;;;5019095;28;20207;-70
2021/04/22 01:50:33;;;;;;;33.83;24.50;;;8.90;99.90;;;;;;5019386;28;20429;-72
2021/04/22 01:53:00;;;;;;;38.70;26.83;;;8.90;99.90;;;;;;5019653;28;20469;-70
2021/04/22 01:55:37;;;;;;;37.83;28.00;;;8.90;99.90;;;;;;5019850;28;20441;-69
2021/04/22 01:58:05;;;;;;;37.03;27.70;;;8.90;99.90;;;;;;5019245;28;20442;-71
2021/04/22 02:00:42;;;;;;;35.93;24.87;;;9.00;99.90;;;;;;5018208;28;20414;-72
2021/04/22 02:03:08;;;;;;;37.10;25.17;;;9.10;99.90;;;;;;5020073;28;20434;-70
2021/04/22 02:05:35;;;;;;;39.07;25.23;;;9.10;99.90;;;;;;5019087;28;20431;-71
2021/04/22 02:08:01;;;;;;;39.27;26.80;;;9.10;99.90;;;;;;5020012;28;20202;-70
2021/04/22 02:10:26;;;;;;;36.20;25.57;;;9.20;99.90;;;;;;5021458;28;20435;-71
2021/04/22 02:12:53;;;;;;;38.00;27.27;;;9.20;99.90;;;;;;5022823;28;20464;-71
2021/04/22 02:15:22;;;;;;;37.20;27.03;;;9.10;99.90;;;;;;5014500;28;20197;-71
2021/04/22 02:17:48;;;;;;;33.63;25.27;;;9.10;99.90;;;;;;5015830;28;20429;-71
2021/04/22 02:20:14;;;;;;;36.63;26.87;;;9.10;99.90;;;;;;5020699;28;20537;-72
2021/04/22 02:22:41;;;;;;;44.63;27.30;;;9.00;99.90;;;;;;5020428;28;20669;-70
2021/04/22 02:25:09;;;;;;;38.00;25.97;;;9.00;99.90;;;;;;5015849;28;20434;-70
2021/04/22 02:27:36;;;;;;;37.30;27.23;;;9.00;99.90;;;;;;5020714;28;20504;-71
2021/04/22 02:30:02;;;;;;;42.63;27.90;;;8.90;99.90;;;;;;5021170;28;20438;-70
2021/04/22 02:32:28;;;;;;;39.67;26.30;;;8.90;99.90;;;;;;5016974;28;20509;-70
2021/04/22 02:34:53;;;;;;;38.40;27.13;;;8.80;99.90;;;;;;5019021;28;20431;-70
2021/04/22 02:37:19;;;;;;;39.77;29.57;;;8.80;99.90;;;;;;5020501;28;20264;-70
2021/04/22 02:39:44;;;;;;;37.70;28.93;;;8.80;99.90;;;;;;5022124;28;20278;-71
2021/04/22 02:42:10;;;;;;;37.03;27.90;;;8.80;99.90;;;;;;5017771;28;20270;-70
2021/04/22 02:44:35;;;;;;;42.67;28.20;;;8.80;99.90;;;;;;5020858;28;20188;-71
2021/04/22 02:47:01;;;;;;;41.93;28.53;;;8.80;99.90;;;;;;5017610;28;20256;-72
2021/04/22 02:49:27;;;;;;;40.43;27.90;;;8.80;99.90;;;;;;5021722;28;20200;-70
2021/04/22 02:51:52;;;;;;;50.20;29.20;;;8.80;99.90;;;;;;5013216;28;20255;-70
2021/04/22 02:54:18;;;;;;;44.10;31.10;;;8.90;99.90;;;;;;5014448;28;20537;-72
2021/04/22 02:56:43;;;;;;;44.20;29.57;;;8.90;99.90;;;;;;5018642;28;20182;-71
2021/04/22 02:59:09;;;;;;;42.80;29.37;;;8.90;99.90;;;;;;5018406;28;20209;-71
2021/04/22 03:01:34;;;;;;;48.83;32.30;;;8.90;99.90;;;;;;5019327;28;20187;-72
2021/04/22 03:04:00;;;;;;;48.87;32.07;;;9.00;99.90;;;;;;5023987;28;20597;-71
2021/04/22 03:06:26;;;;;;;42.10;31.33;;;8.90;99.90;;;;;;5021479;28;20240;-70
2021/04/22 03:08:51;;;;;;;54.70;34.20;;;8.90;99.90;;;;;;5026505;28;20444;-70
2021/04/22 03:11:17;;;;;;;51.00;33.70;;;8.90;99.90;;;;;;5025727;28;20186;-71
2021/04/22 03:13:43;;;;;;;44.77;30.93;;;8.90;99.90;;;;;;5022020;28;20213;-70
2021/04/22 03:16:08;;;;;;;47.23;31.20;;;9.00;99.90;;;;;;5022085;28;20213;-70
2021/04/22 03:18:34;;;;;;;51.27;32.67;;;8.90;99.90;;;;;;5023726;28;20225;-71
2021/04/22 03:20:59;;;;;;;48.33;33.43;;;9.00;99.90;;;;;;5023845;28;20617;-70
2021/04/22 03:23:25;;;;;;;51.90;33.63;;;8.90;99.90;;;;;;5020161;28;20715;-70
2021/04/22 03:25:50;;;;;;;50.27;33.23;;;8.90;99.90;;;;;;5038370;28;20184;-71
2021/04/22 03:28:16;;;;;;;51.63;31.87;;;8.90;99.90;;;;;;5022502;28;20576;-71
2021/04/22 03:30:42;;;;;;;41.87;28.67;;;8.90;99.90;;;;;;5024473;28;20190;-71
2021/04/22 03:33:07;;;;;;;43.57;31.10;;;8.90;99.90;;;;;;5019802;28;20664;-69
2021/04/22 03:35:33;;;;;;;43.20;30.17;;;8.90;99.90;;;;;;5021076;28;20187;-70
2021/04/22 03:37:59;;;;;;;45.67;30.50;;;8.80;99.90;;;;;;5019845;28;20224;-70
2021/04/22 03:40:25;;;;;;;41.33;28.70;;;8.90;99.90;;;;;;5022055;28;20681;-70
2021/04/22 03:42:52;;;;;;;44.17;29.70;;;8.90;99.90;;;;;;5017749;28;20264;-71
2021/04/22 03:45:18;;;;;;;38.10;28.50;;;8.90;99.90;;;;;;5021921;28;20467;-71
2021/04/22 03:47:44;;;;;;;34.97;25.80;;;8.90;99.90;;;;;;5022539;28;20420;-70
2021/04/22 03:50:12;;;;;;;37.73;24.50;;;8.80;99.90;;;;;;5023120;28;20431;-70
2021/04/22 03:52:38;;;;;;;34.77;25.13;;;8.80;99.90;;;;;;5022413;28;20516;-71
2021/04/22 03:55:05;;;;;;;32.90;23.47;;;8.80;99.90;;;;;;5018805;28;20518;-72
2021/04/22 03:57:31;;;;;;;34.13;23.30;;;8.70;99.90;;;;;;5016775;28;20177;-67
2021/04/22 03:59:56;;;;;;;30.03;24.30;;;8.70;99.90;;;;;;5022449;28;20416;-70
2021/04/22 04:02:22;;;;;;;35.10;23.07;;;8.70;99.90;;;;;;5020483;28;20568;-71
2021/04/22 04:04:47;;;;;;;29.27;22.50;;;8.70;99.90;;;;;;5020960;28;20737;-71
2021/04/22 04:07:13;;;;;;;32.17;22.87;;;8.70;99.90;;;;;;5021124;28;20187;-71
2021/04/22 04:09:38;;;;;;;36.43;22.83;;;8.60;99.90;;;;;;5020292;28;20203;-71
2021/04/22 04:12:06;;;;;;;35.03;23.03;;;8.50;99.90;;;;;;5019184;28;20216;-72
2021/04/22 04:14:32;;;;;;;37.47;24.47;;;8.50;99.90;;;;;;5016295;28;20209;-71
2021/04/22 04:16:58;;;;;;;32.30;24.00;;;8.50;99.90;;;;;;5022174;28;20467;-72
2021/04/22 04:19:23;;;;;;;36.73;22.43;;;8.30;99.90;;;;;;5018213;28;20491;-71
2021/04/22 04:21:49;;;;;;;31.20;22.97;;;8.30;99.90;;;;;;5025149;28;20619;-71
2021/04/22 04:24:14;;;;;;;32.47;23.13;;;8.30;99.90;;;;;;5016840;28;20191;-70
2021/04/22 04:26:40;;;;;;;32.10;23.00;;;8.20;99.90;;;;;;5019435;28;20209;-71
2021/04/22 04:29:05;;;;;;;38.10;23.40;;;8.20;99.90;;;;;;5020655;28;20202;-76
2021/04/22 04:31:31;;;;;;;33.40;24.07;;;8.10;99.90;;;;;;5022461;28;20931;-71
2021/04/22 04:33:56;;;;;;;33.67;23.60;;;8.10;99.90;;;;;;5025623;28;20289;-71
2021/04/22 04:36:22;;;;;;;37.63;24.03;;;8.10;99.90;;;;;;5023513;28;20591;-71
2021/04/22 04:38:48;;;;;;;33.00;25.00;;;8.00;99.90;;;;;;5014967;28;20250;-71
2021/04/22 04:41:13;;;;;;;31.20;23.80;;;8.00;99.90;;;;;;5020991;28;20490;-71
2021/04/22 04:43:39;;;;;;;30.10;21.80;;;8.00;99.90;;;;;;5018885;28;20192;-72
2021/04/22 04:46:05;;;;;;;35.17;25.33;;;7.90;99.90;;;;;;5022723;28;20175;-71
2021/04/22 04:48:30;;;;;;;31.10;21.77;;;8.00;99.90;;;;;;5021307;28;20739;-71
2021/04/22 04:50:56;;;;;;;31.10;22.63;;;8.00;99.90;;;;;;5020649;28;20185;-71
2021/04/22 04:53:21;;;;;;;31.17;23.13;;;8.10;99.90;;;;;;5020795;28;20210;-71
2021/04/22 04:55:47;;;;;;;34.10;23.20;;;8.10;99.90;;;;;;5020471;28;20542;-74
2021/04/22 04:58:12;;;;;;;28.80;20.50;;;8.10;99.90;;;;;;5023096;28;20200;-71
2021/04/22 05:00:38;;;;;;;30.53;21.60;;;8.10;99.90;;;;;;5020420;28;20336;-71
2021/04/22 05:03:04;;;;;;;31.80;22.27;;;8.20;99.90;;;;;;5022787;28;20179;-73
2021/04/22 05:05:29;;;;;;;28.50;20.90;;;8.20;99.90;;;;;;5019785;28;20184;-70
2021/04/22 05:07:55;;;;;;;25.77;21.13;;;8.30;99.90;;;;;;5020598;28;20560;-71
2021/04/22 05:10:20;;;;;;;32.27;22.17;;;8.30;99.90;;;;;;5018409;28;20196;-71
2021/04/22 05:12:46;;;;;;;32.00;21.40;;;8.40;99.90;;;;;;5020102;28;20204;-71
2021/04/22 05:15:12;;;;;;;32.70;22.13;;;8.50;99.90;;;;;;5021686;28;20178;-71
2021/04/22 05:17:38;;;;;;;34.87;22.50;;;8.60;99.90;;;;;;5015296;28;20247;-70
2021/04/22 05:20:07;;;;;;;29.80;21.40;;;8.70;99.90;;;;;;5017785;28;20447;-71
2021/04/22 05:22:32;;;;;;;28.70;21.27;;;8.80;99.90;;;;;;5020162;28;20185;-71
2021/04/22 05:24:58;;;;;;;30.83;21.00;;;8.90;99.90;;;;;;5019396;28;20434;-71
2021/04/22 05:27:23;;;;;;;28.40;21.90;;;9.10;99.90;;;;;;5017904;28;20219;-72
2021/04/22 05:29:49;;;;;;;33.13;21.77;;;9.30;99.90;;;;;;5022927;28;20682;-71
2021/04/22 05:32:15;;;;;;;27.53;20.97;;;9.60;99.90;;;;;;5017319;28;20203;-71
2021/04/22 05:34:40;;;;;;;32.23;19.10;;;9.90;99.90;;;;;;5021255;28;20694;-71
2021/04/22 05:37:06;;;;;;;30.50;20.37;;;10.20;99.90;;;;;;5018290;28;20549;-73
2021/04/22 05:39:31;;;;;;;24.73;19.90;;;10.30;99.90;;;;;;5018567;28;20225;-70
2021/04/22 05:41:58;;;;;;;25.90;20.07;;;10.70;99.90;;;;;;5022913;28;20239;-71
2021/04/22 05:44:24;;;;;;;34.80;21.07;;;11.20;99.90;;;;;;5016483;28;20209;-72
2021/04/22 05:46:50;;;;;;;29.73;20.13;;;11.50;99.90;;;;;;5015502;28;20540;-71
2021/04/22 05:49:16;;;;;;;25.63;20.73;;;11.70;99.90;;;;;;5017380;28;20450;-70
2021/04/22 05:51:42;;;;;;;30.00;20.10;;;11.70;99.90;;;;;;5035511;28;20187;-70
2021/04/22 05:54:10;;;;;;;27.63;18.90;;;12.00;99.90;;;;;;5019632;28;20315;-71
2021/04/22 05:56:36;;;;;;;25.53;19.70;;;12.20;99.90;;;;;;5015072;28;20428;-71
2021/04/22 05:59:01;;;;;;;22.13;18.03;;;12.40;99.90;;;;;;5005077;28;20453;-71
2021/04/22 06:01:27;;;;;;;31.77;20.03;;;12.10;99.90;;;;;;5011731;28;20770;-73
2021/04/22 06:03:53;;;;;;;26.17;19.20;;;12.20;99.90;;;;;;5019571;28;20186;-70
2021/04/22 06:06:18;;;;;;;31.73;21.47;;;11.70;99.90;;;;;;5015749;28;20696;-72
2021/04/22 06:08:47;;;;;;;26.30;19.20;;;11.40;99.90;;;;;;5019989;28;20335;-71
2021/04/22 06:11:14;;;;;;;27.40;19.30;;;11.10;99.90;;;;;;5017447;28;20224;-69
2021/04/22 06:13:39;;;;;;;28.57;19.70;;;10.90;99.90;;;;;;5017223;28;20516;-71
2021/04/22 06:16:05;;;;;;;26.27;20.60;;;11.00;99.90;;;;;;5014914;28;20891;-71
2021/04/22 06:18:31;;;;;;;24.00;19.00;;;11.40;99.90;;;;;;5013327;28;20203;-69
2021/04/22 06:20:57;;;;;;;29.33;19.83;;;11.50;99.90;;;;;;5017043;28;20429;-70
2021/04/22 06:23:24;;;;;;;26.03;21.40;;;11.80;99.90;;;;;;5016460;28;20261;-71
2021/04/22 06:25:50;;;;;;;25.97;18.87;;;12.00;99.90;;;;;;5016139;28;20201;-69
2021/04/22 06:28:15;;;;;;;28.97;20.70;;;12.00;99.90;;;;;;5016460;28;20495;-70
2021/04/22 06:30:41;;;;;;;26.30;18.80;;;12.00;99.90;;;;;;5018461;28;20178;-71
2021/04/22 06:33:06;;;;;;;28.10;18.90;;;11.60;99.90;;;;;;5013921;28;20206;-70
2021/04/22 06:35:32;;;;;;;29.97;20.03;;;11.40;99.90;;;;;;5017634;28;20653;-69
2021/04/22 06:37:58;;;;;;;25.80;20.17;;;11.30;99.90;;;;;;5015483;28;20270;-69
2021/04/22 06:40:24;;;;;;;29.33;19.43;;;11.10;99.90;;;;;;5007496;28;20175;-72
2021/04/22 06:42:51;;;;;;;28.23;19.13;;;11.20;99.90;;;;;;5012776;28;20182;-71
2021/04/22 06:45:17;;;;;;;34.33;19.93;;;11.10;99.90;;;;;;5004962;28;20530;-69
2021/04/22 06:47:44;;;;;;;26.00;16.80;;;11.10;99.90;;;;;;5008374;28;20798;-70
2021/04/22 06:50:13;;;;;;;26.70;19.27;;;11.00;99.90;;;;;;5013311;28;20532;-71
2021/04/22 06:52:39;;;;;;;30.87;18.30;;;10.90;99.90;;;;;;5012996;28;20875;-72
2021/04/22 06:55:10;;;;;;;33.30;18.10;;;10.80;99.90;;;;;;5012060;28;20929;-72
2021/04/22 06:57:35;;;;;;;25.80;18.57;;;10.90;99.90;;;;;;5012464;28;20429;-71
2021/04/22 07:00:01;;;;;;;24.17;17.20;;;10.80;99.90;;;;;;5014829;28;20787;-71
2021/04/22 07:02:27;;;;;;;24.60;15.70;;;10.90;99.90;;;;;;5011341;28;20208;-73
2021/04/22 07:04:53;;;;;;;26.83;16.30;;;10.90;99.90;;;;;;5011985;28;20190;-74
2021/04/22 07:07:19;;;;;;;23.60;15.70;;;11.00;99.90;;;;;;5020773;28;20217;-73
2021/04/22 07:09:45;;;;;;;30.00;15.87;;;10.90;99.90;;;;;;5016680;28;21249;-72
2021/04/22 07:12:10;;;;;;;35.20;17.10;;;10.90;99.90;;;;;;5013214;28;20206;-72
2021/04/22 07:14:36;;;;;;;28.37;15.40;;;10.90;99.90;;;;;;5019725;28;20429;-72
2021/04/22 07:17:01;;;;;;;23.13;14.80;;;10.90;99.90;;;;;;5012913;28;20534;-72
2021/04/22 07:19:28;;;;;;;28.00;17.03;;;11.00;99.90;;;;;;5019375;28;20673;-72
2021/04/22 07:21:55;;;;;;;26.00;15.67;;;11.10;99.90;;;;;;5016806;28;20178;-72
2021/04/22 07:24:20;;;;;;;26.23;14.60;;;11.20;99.90;;;;;;5012091;28;20431;-72
2021/04/22 07:26:46;;;;;;;23.97;15.60;;;11.30;99.90;;;;;;5014096;28;20728;-72
2021/04/22 07:29:12;;;;;;;25.77;15.80;;;11.30;99.90;;;;;;5012559;28;20256;-72
2021/04/22 07:31:37;;;;;;;21.63;15.03;;;11.30;99.90;;;;;;5010767;28;20174;-72
2021/04/22 07:34:03;;;;;;;20.07;13.93;;;11.20;99.90;;;;;;5018220;28;20614;-69
2021/04/22 07:36:28;;;;;;;22.80;13.60;;;11.20;99.90;;;;;;5017663;28;20228;-71
2021/04/22 07:38:54;;;;;;;26.83;14.63;;;11.30;99.90;;;;;;5011686;28;20206;-69
2021/04/22 07:41:20;;;;;;;18.53;13.97;;;11.40;99.90;;;;;;5013696;28;20182;-69
2021/04/22 07:43:46;;;;;;;20.97;14.30;;;11.30;99.90;;;;;;5015377;28;20273;-69
2021/04/22 07:46:11;;;;;;;22.77;14.17;;;11.30;99.90;;;;;;5015654;28;20520;-70
2021/04/22 07:48:37;;;;;;;25.03;12.70;;;11.30;99.90;;;;;;5016002;28;20203;-69
2021/04/22 07:51:03;;;;;;;23.97;12.70;;;11.40;99.90;;;;;;5013925;28;20198;-69
2021/04/22 07:53:29;;;;;;;16.30;12.60;;;11.40;99.90;;;;;;5007090;28;20256;-69
2021/04/22 07:55:55;;;;;;;18.97;12.80;;;11.20;99.90;;;;;;5017585;28;20457;-69
2021/04/22 07:58:20;;;;;;;22.50;12.67;;;11.40;99.90;;;;;;5021323;28;20281;-70
2021/04/22 08:00:48;;;;;;;17.53;11.47;;;11.50;99.90;;;;;;5019127;28;20225;-71
2021/04/22 08:03:14;;;;;;;20.53;11.90;;;11.60;99.90;;;;;;5022232;28;20208;-70
2021/04/22 08:05:40;;;;;;;16.10;11.60;;;11.80;99.90;;;;;;5012223;28;20441;-69
2021/04/22 08:08:11;;;;;;;21.57;11.97;;;12.00;99.90;;;;;;5017328;28;20457;-69
2021/04/22 08:10:44;;;;;;;19.50;12.70;;;12.30;99.90;;;;;;5017348;28;20432;-69
2021/04/22 08:13:11;;;;;;;15.30;11.67;;;12.60;99.90;;;;;;5016940;28;20562;-69
2021/04/22 08:15:38;;;;;;;21.60;12.70;;;12.70;99.90;;;;;;5014621;28;20436;-70
2021/04/22 08:18:03;;;;;;;21.73;12.27;;;12.70;99.90;;;;;;5012951;28;20446;-71
2021/04/22 08:20:30;;;;;;;20.20;10.53;;;12.90;99.90;;;;;;5005170;28;20491;-71
2021/04/22 08:22:59;;;;;;;13.53;11.10;;;13.00;99.90;;;;;;5018921;28;20512;-70
2021/04/22 08:25:42;;;;;;;17.00;10.50;;;13.20;99.90;;;;;;5018154;28;20939;-70
2021/04/22 08:28:10;;;;;;;21.13;11.37;;;13.30;99.90;;;;;;5016220;28;20449;-70
2021/04/22 08:30:43;;;;;;;14.53;11.30;;;13.30;99.90;;;;;;5012140;28;20483;-71
2021/04/22 08:33:09;;;;;;;17.60;11.03;;;13.20;99.90;;;;;;5015776;28;20461;-70
2021/04/22 08:35:35;;;;;;;21.60;11.80;;;13.20;99.90;;;;;;5012146;28;20437;-70
2021/04/22 08:38:01;;;;;;;18.80;10.73;;;13.30;99.90;;;;;;5015044;28;20837;-70
2021/04/22 08:40:27;;;;;;;14.87;10.87;;;13.30;99.90;;;;;;5017993;28;20174;-70
2021/04/22 08:42:53;;;;;;;19.77;10.10;;;13.30;99.90;;;;;;5014644;28;21212;-71
2021/04/22 08:45:19;;;;;;;18.30;10.30;;;13.20;99.90;;;;;;5019857;28;20186;-70
2021/04/22 08:47:45;;;;;;;26.60;11.20;;;13.20;99.90;;;;;;5011930;28;20468;-71
2021/04/22 08:50:22;;;;;;;23.53;10.30;;;13.40;99.90;;;;;;5015166;28;20818;-71
2021/04/22 08:52:54;;;;;;;17.87;10.70;;;13.60;99.90;;;;;;5020161;28;20464;-71
2021/04/22 08:55:22;;;;;;;15.10;10.53;;;14.20;99.90;;;;;;5016474;28;20478;-71
2021/04/22 08:57:49;;;;;;;14.60;10.00;;;14.90;99.90;;;;;;5016698;28;20436;-71
2021/04/22 09:00:18;;;;;;;12.70;10.03;;;15.60;99.90;;;;;;5017056;28;20448;-72
2021/04/22 09:02:44;;;;;;;20.77;9.43;;;16.10;99.90;;;;;;5012429;28;20440;-72
2021/04/22 09:05:12;;;;;;;15.53;9.90;;;16.40;99.90;;;;;;5013196;28;20434;-72
2021/04/22 09:07:38;;;;;;;13.00;9.30;;;16.50;99.90;;;;;;5014492;28;20296;-71
2021/04/22 09:10:05;;;;;;;12.93;9.20;;;16.90;99.90;;;;;;5013019;28;20956;-71
2021/04/22 09:12:31;;;;;;;16.73;9.10;;;16.90;99.90;;;;;;5011441;28;20203;-72
2021/04/22 09:15:01;;;;;;;13.67;9.80;;;17.00;99.90;;;;;;5016082;28;20998;-71
2021/04/22 09:17:28;;;;;;;14.70;9.10;;;16.90;99.90;;;;;;5015842;28;20436;-71
2021/04/22 09:19:54;;;;;;;16.03;8.27;;;17.30;99.90;;;;;;5014393;28;20465;-71
2021/04/22 09:22:20;;;;;;;14.07;9.10;;;17.50;99.90;;;;;;5012951;28;20437;-72
2021/04/22 09:24:46;;;;;;;13.53;8.90;;;18.00;99.90;;;;;;5013218;28;20457;-73
2021/04/22 09:27:16;;;;;;;12.30;8.50;;;17.60;99.90;;;;;;5015295;28;20448;-72
2021/04/22 09:29:49;;;;;;;13.37;8.40;;;17.70;99.90;;;;;;5015568;28;20201;-71
2021/04/22 09:32:21;;;;;;;16.43;7.67;;;17.70;99.90;;;;;;5016692;28;20465;-71
2021/04/22 09:34:50;;;;;;;15.50;7.90;;;17.70;99.90;;;;;;5014100;28;20798;-72
2021/04/22 09:37:19;;;;;;;14.37;7.67;;;18.20;99.90;;;;;;5010817;28;20483;-71
2021/04/22 09:39:45;;;;;;;12.00;7.20;;;18.90;99.90;;;;;;5022652;28;20465;-70
2021/04/22 09:42:17;;;;;;;9.87;6.07;;;19.00;99.90;;;;;;5014224;28;20426;-71
2021/04/22 09:44:47;;;;;;;10.30;6.80;;;19.30;99.90;;;;;;5011902;28;20250;-71
2021/04/22 09:47:20;;;;;;;9.80;5.80;;;19.40;99.90;;;;;;5012352;28;20429;-71
2021/04/22 09:49:51;;;;;;;9.10;7.63;;;19.10;99.90;;;;;;5011568;28;20437;-72
2021/04/22 09:52:20;;;;;;;8.63;6.17;;;19.10;99.90;;;;;;5009455;28;20483;-71
2021/04/22 09:54:49;;;;;;;10.70;7.07;;;19.20;99.90;;;;;;5014546;28;20432;-71
2021/04/22 09:57:22;;;;;;;13.07;7.40;;;19.40;99.90;;;;;;5014511;28;20956;-72
2021/04/22 09:59:48;;;;;;;9.83;6.40;;;19.20;99.90;;;;;;5015045;28;20456;-72
2021/04/22 10:02:14;;;;;;;13.53;6.50;;;19.10;99.90;;;;;;5014456;28;20935;-71
2021/04/22 10:04:42;;;;;;;9.27;6.07;;;19.30;98.90;;;;;;5017160;28;20549;-71
2021/04/22 10:07:24;;;;;;;8.70;6.10;;;19.40;98.10;;;;;;5020774;28;20182;-71
2021/04/22 10:09:53;;;;;;;12.30;6.33;;;18.90;99.50;;;;;;5015929;28;20438;-72
2021/04/22 10:12:32;;;;;;;8.33;5.33;;;18.80;99.90;;;;;;5021730;28;20498;-71
2021/04/22 10:15:18;;;;;;;11.83;6.60;;;18.90;99.70;;;;;;5015294;28;20432;-72
2021/04/22 10:17:54;;;;;;;9.00;5.30;;;19.30;99.90;;;;;;5023261;28;20458;-72
2021/04/22 10:20:22;;;;;;;7.87;4.80;;;19.20;98.30;;;;;;5015249;28;20443;-72
2021/04/22 10:22:50;;;;;;;7.57;5.27;;;18.90;98.00;;;;;;5014968;28;20454;-71
2021/04/22 10:25:19;;;;;;;10.20;4.67;;;18.90;96.00;;;;;;5010549;28;20430;-72
2021/04/22 10:27:45;;;;;;;5.00;3.53;;;19.00;96.70;;;;;;5018069;28;20455;-71
2021/04/22 10:30:14;;;;;;;14.17;5.03;;;19.50;96.50;;;;;;5021351;28;20853;-72
2021/04/22 10:32:42;;;;;;;8.53;4.77;;;19.50;95.50;;;;;;5020144;28;20480;-73
2021/04/22 10:35:10;;;;;;;8.50;4.40;;;19.60;96.30;;;;;;5017614;28;20446;-72
2021/04/22 10:37:38;;;;;;;9.23;3.97;;;19.90;93.90;;;;;;5012325;28;20422;-72
2021/04/22 10:40:04;;;;;;;7.23;3.53;;;20.40;94.80;;;;;;5018621;28;20805;-72
2021/04/22 10:42:32;;;;;;;10.00;4.03;;;20.40;93.10;;;;;;5014587;28;20512;-72
2021/04/22 10:44:58;;;;;;;9.83;3.73;;;20.10;90.50;;;;;;5017074;28;20433;-72
2021/04/22 10:47:24;;;;;;;7.77;4.17;;;19.20;91.20;;;;;;5013102;28;20433;-72
2021/04/22 10:49:51;;;;;;;6.80;3.70;;;19.50;89.90;;;;;;5014040;28;20200;-72
2021/04/22 10:52:19;;;;;;;5.87;3.60;;;19.90;88.90;;;;;;5013267;28;20461;-72
2021/04/22 10:54:47;;;;;;;7.53;4.27;;;20.00;88.60;;;;;;5018446;28;20464;-71
2021/04/22 10:57:16;;;;;;;7.63;4.10;;;19.70;87.90;;;;;;5021664;28;20455;-72
2021/04/22 10:59:44;;;;;;;12.73;4.00;;;19.50;89.00;;;;;;5014543;28;20460;-71
2021/04/22 11:02:17;;;;;;;9.23;4.77;;;19.50;90.90;;;;;;5020729;28;20452;-70
2021/04/22 11:04:47;;;;;;;8.00;4.93;;;19.00;91.20;;;;;;5014880;28;20935;-71
2021/04/22 11:07:20;;;;;;;7.37;4.23;;;18.70;91.30;;;;;;5019884;28;20424;-72
2021/04/22 11:09:48;;;;;;;4.27;2.77;;;18.60;90.30;;;;;;5010395;28;20447;-71
2021/04/22 11:12:23;;;;;;;7.40;4.17;;;18.60;89.40;;;;;;5015892;28;20516;-73
2021/04/22 11:14:51;;;;;;;10.53;4.83;;;18.70;90.20;;;;;;5002650;28;20523;-73
2021/04/22 11:17:19;;;;;;;6.97;4.43;;;18.70;91.50;;;;;;5013363;28;20439;-72
2021/04/22 11:19:48;;;;;;;9.33;4.30;;;18.90;90.00;;;;;;5017952;28;20449;-72
2021/04/22 11:22:21;;;;;;;9.07;4.33;;;18.30;89.50;;;;;;5016243;28;20826;-73
2021/04/22 11:24:56;;;;;;;3.57;3.23;;;18.10;87.20;;;;;;5014475;28;20467;-72
2021/04/22 11:27:23;;;;;;;9.93;3.60;;;18.30;89.80;;;;;;5022111;28;20931;-72
2021/04/22 11:29:57;;;;;;;3.20;2.90;;;18.80;91.10;;;;;;5024826;28;20491;-73
2021/04/22 11:32:27;;;;;;;6.30;3.47;;;18.80;85.90;;;;;;5019151;28;20460;-72
2021/04/22 11:35:14;;;;;;;5.80;3.10;;;18.50;83.50;;;;;;5021224;28;20551;-71
2021/04/22 11:37:45;;;;;;;4.67;2.87;;;18.30;87.10;;;;;;5019526;28;20822;-72
2021/04/22 11:40:19;;;;;;;6.77;3.50;;;18.50;80.90;;;;;;5018943;28;20426;-71
2021/04/22 11:42:47;;;;;;;7.20;4.23;;;18.40;83.00;;;;;;5020341;28;20424;-71
2021/04/22 11:45:16;;;;;;;6.40;3.73;;;18.10;78.70;;;;;;5022058;28;20430;-71
2021/04/22 11:47:56;;;;;;;6.40;3.07;;;18.00;84.30;;;;;;5017328;28;20448;-71
2021/04/22 11:50:24;;;;;;;7.80;3.90;;;18.10;81.80;;;;;;5020184;28;20520;-71
2021/04/22 11:52:57;;;;;;;5.97;3.87;;;17.90;86.00;;;;;;5020475;28;20560;-73
2021/04/22 11:55:32;;;;;;;7.10;3.73;;;17.90;89.00;;;;;;5032476;28;20802;-72
2021/04/22 11:58:06;;;;;;;3.17;2.87;;;17.60;88.10;;;;;;5021487;28;20510;-74
2021/04/22 12:00:37;;;;;;;8.03;3.20;;;17.50;82.00;;;;;;5013710;28;20525;-72
2021/04/22 12:03:03;;;;;;;10.17;4.10;;;17.60;84.00;;;;;;5021081;28;20440;-70
2021/04/22 12:05:29;;;;;;;8.20;3.67;;;17.90;83.80;;;;;;5022821;28;20528;-71
2021/04/22 12:08:11;;;;;;;6.23;3.20;;;18.10;81.00;;;;;;5021193;28;21308;-71
2021/04/22 12:10:49;;;;;;;6.53;3.10;;;17.90;81.90;;;;;;5019779;28;20270;-72
2021/04/22 12:13:19;;;;;;;4.60;3.23;;;17.80;81.80;;;;;;5021778;28;20459;-72
2021/04/22 12:15:52;;;;;;;4.53;3.47;;;17.60;83.40;;;;;;5018793;28;20821;-72
2021/04/22 12:18:24;;;;;;;6.67;4.70;;;17.70;88.50;;;;;;5015342;28;20512;-72
2021/04/22 12:20:51;;;;;;;4.83;3.70;;;17.70;90.10;;;;;;5016061;28;20436;-73
2021/04/22 12:23:30;;;;;;;5.87;4.03;;;17.60;88.50;;;;;;5014186;28;20997;-72
2021/04/22 12:25:58;;;;;;;7.10;3.90;;;17.50;89.00;;;;;;5034342;28;20469;-73
2021/04/22 12:28:24;;;;;;;8.80;3.90;;;17.80;91.10;;;;;;5017447;28;20535;-72
2021/04/22 12:30:50;;;;;;;8.23;3.60;;;17.80;90.00;;;;;;5021200;28;20515;-74
2021/04/22 12:33:21;;;;;;;8.43;3.80;;;17.70;88.70;;;;;;5020380;28;20641;-73
2021/04/22 12:35:54;;;;;;;12.13;3.90;;;17.60;85.20;;;;;;5017393;28;20413;-74